createdAt,value
2023-08-21T00:01:19.486Z,86.67
2023-08-21T00:03:59.824Z,84.41
2023-08-21T00:06:39.980Z,85.18
2023-08-21T00:09:20.343Z,85.90
2023-08-21T00:12:00.460Z,85.20
2023-08-21T00:14:40.818Z,84.70
2023-08-21T00:17:21.057Z,84.38
2023-08-21T00:20:01.102Z,84.37
2023-08-21T00:22:41.265Z,84.53
2023-08-21T00:25:22.963Z,84.57
2023-08-21T00:28:03.126Z,86.27
2023-08-21T00:30:43.464Z,87.98
2023-08-21T00:33:23.438Z,86.66
2023-08-21T00:36:04.297Z,85.90
2023-08-21T00:38:44.331Z,85.50
2023-08-21T00:41:25.003Z,84.93
2023-08-21T00:44:05.168Z,84.67
2023-08-21T00:46:45.669Z,86.70
2023-08-21T00:49:26.256Z,86.57
2023-08-21T00:52:11.847Z,85.90
2023-08-21T00:54:51.832Z,85.43
2023-08-21T00:57:33.007Z,85.07
2023-08-21T01:00:14.196Z,85.11
2023-08-21T01:02:54.533Z,84.84
2023-08-21T01:05:36.239Z,84.67
2023-08-21T01:08:31.331Z,87.21
2023-08-21T01:11:49.211Z,87.26
2023-08-21T01:14:34.512Z,87.59
2023-08-21T01:17:17.878Z,88.51
2023-08-21T01:19:59.781Z,87.29
2023-08-21T01:22:41.672Z,86.81
2023-08-21T01:25:21.743Z,88.37
2023-08-21T01:28:02.265Z,87.47
2023-08-21T01:30:43.276Z,87.06
2023-08-21T01:33:25.441Z,89.06
2023-08-21T01:36:05.621Z,87.81
2023-08-21T01:38:45.992Z,88.71
2023-08-21T01:41:26.782Z,88.44
2023-08-21T01:44:06.714Z,87.95
2023-08-21T01:46:46.688Z,88.76
2023-08-21T01:49:26.701Z,87.92
2023-08-21T01:52:06.880Z,88.17
2023-08-21T01:54:49.127Z,89.14
2023-08-21T01:57:29.223Z,88.90
2023-08-21T02:00:10.317Z,88.23
2023-08-21T02:02:50.576Z,90.22
2023-08-21T02:05:31.047Z,88.72
2023-08-21T02:08:14.951Z,89.63
2023-08-21T02:10:55.202Z,88.68
2023-08-21T02:13:35.451Z,88.29
2023-08-21T02:16:15.605Z,88.28
2023-08-21T02:18:56.148Z,88.22
2023-08-21T02:21:37.630Z,87.88
2023-08-21T02:24:18.135Z,88.05
2023-08-21T02:26:58.334Z,88.44
2023-08-21T02:29:38.673Z,88.80
2023-08-21T02:32:18.622Z,88.43
2023-08-21T02:34:58.689Z,88.09
2023-08-21T02:37:40.165Z,87.90
2023-08-21T02:40:20.409Z,88.33
2023-08-21T02:43:00.386Z,88.62
2023-08-21T02:45:40.406Z,90.41
2023-08-21T02:48:20.438Z,89.75
2023-08-21T02:51:01.614Z,89.16
2023-08-21T02:53:42.879Z,88.82
2023-08-21T02:56:23.206Z,88.62
2023-08-21T02:59:03.441Z,88.24
2023-08-21T03:01:43.460Z,88.11
2023-08-21T03:04:24.229Z,88.19
2023-08-21T03:07:04.331Z,87.99
2023-08-21T03:09:47.233Z,89.62
2023-08-21T03:12:27.336Z,90.12
2023-08-21T03:15:08.231Z,89.44
2023-08-21T03:17:48.288Z,89.32
2023-08-21T03:20:28.414Z,90.31
2023-08-21T03:23:08.425Z,89.83
2023-08-21T03:25:48.593Z,89.17
2023-08-21T03:28:28.644Z,88.82
2023-08-21T03:31:09.156Z,88.58
2023-08-21T03:33:49.418Z,88.62
2023-08-21T03:36:33.471Z,88.58
2023-08-21T03:39:13.809Z,89.08
2023-08-21T03:41:53.759Z,91.08
2023-08-21T03:44:34.749Z,92.53
2023-08-21T03:47:15.110Z,91.73
2023-08-21T03:49:55.333Z,92.94
2023-08-21T03:52:36.246Z,91.67
2023-08-21T03:55:16.819Z,92.24
2023-08-21T03:57:57.046Z,91.53
2023-08-21T04:00:37.001Z,91.11
2023-08-21T04:03:17.470Z,90.78
2023-08-21T04:05:57.725Z,91.61
2023-08-21T04:08:37.791Z,90.87
2023-08-21T04:11:18.123Z,90.41
2023-08-21T04:14:00.157Z,90.09
2023-08-21T04:16:40.339Z,89.63
2023-08-21T04:19:20.489Z,89.20
2023-08-21T04:22:00.930Z,88.94
2023-08-21T04:24:42.376Z,88.83
2023-08-21T04:27:22.628Z,88.46
2023-08-21T04:30:02.677Z,89.73
2023-08-21T04:32:43.051Z,92.95
2023-08-21T04:35:23.408Z,92.41
2023-08-21T04:38:03.536Z,92.59
2023-08-21T04:40:43.792Z,91.83
2023-08-21T04:43:23.879Z,91.20
2023-08-21T04:46:05.281Z,91.77
2023-08-21T04:48:45.489Z,91.55
2023-08-21T04:51:25.895Z,91.45
2023-08-21T04:54:06.057Z,91.38
2023-08-21T04:56:46.153Z,91.01
2023-08-21T04:59:26.437Z,92.34
2023-08-21T05:02:07.350Z,94.03
2023-08-21T05:04:47.639Z,93.94
2023-08-21T05:07:30.449Z,94.24
2023-08-21T05:10:10.933Z,93.37
2023-08-21T05:12:51.281Z,92.13
2023-08-21T05:15:31.448Z,91.26
2023-08-21T05:18:11.431Z,92.12
2023-08-21T05:20:54.558Z,92.80
2023-08-21T05:23:34.583Z,92.20
2023-08-21T05:26:14.684Z,93.25
2023-08-21T05:28:55.086Z,93.39
2023-08-21T05:31:35.233Z,92.52
2023-08-21T05:34:15.442Z,92.85
2023-08-21T05:36:55.712Z,93.00
2023-08-21T05:39:36.019Z,91.80
2023-08-21T05:42:16.146Z,92.10
2023-08-21T05:44:56.353Z,91.86
2023-08-21T05:47:36.335Z,91.17
2023-08-21T05:50:16.759Z,91.32
2023-08-21T05:52:58.959Z,90.58
2023-08-21T05:55:39.137Z,90.17
2023-08-21T05:58:19.149Z,89.88
2023-08-21T06:01:00.436Z,90.73
2023-08-21T06:03:40.783Z,90.81
2023-08-21T06:06:21.253Z,90.23
2023-08-21T06:09:01.975Z,89.90
2023-08-21T06:11:42.382Z,89.76
2023-08-21T06:14:29.804Z,89.54
2023-08-21T06:17:10.445Z,89.46
2023-08-21T06:19:50.642Z,88.86
2023-08-21T06:22:30.670Z,89.08
2023-08-21T06:25:11.118Z,88.97
2023-08-21T06:27:58.658Z,88.81
2023-08-21T06:30:40.226Z,89.04
2023-08-21T06:33:20.509Z,89.19
2023-08-21T06:36:00.964Z,89.10
2023-08-21T06:38:41.133Z,88.80
2023-08-21T06:41:21.249Z,89.15
2023-08-21T06:44:01.594Z,88.67
2023-08-21T06:46:41.850Z,88.56
2023-08-21T06:49:21.941Z,88.15
2023-08-21T06:52:03.944Z,88.32
2023-08-21T06:54:43.978Z,88.45
2023-08-21T06:57:24.349Z,88.30
2023-08-21T07:00:07.318Z,88.25
2023-08-21T07:02:47.601Z,88.22
2023-08-21T07:05:28.010Z,87.74
2023-08-21T07:08:08.873Z,87.44
2023-08-21T07:10:49.307Z,86.96
2023-08-21T07:13:36.266Z,86.72
2023-08-21T07:16:16.548Z,86.54
2023-08-21T07:18:57.333Z,86.71
2023-08-21T07:21:39.354Z,86.31
2023-08-21T07:24:19.468Z,86.47
2023-08-21T07:26:59.780Z,86.15
2023-08-21T07:29:40.056Z,86.21
2023-08-21T07:32:31.013Z,85.75
2023-08-21T07:35:11.837Z,86.02
2023-08-21T07:37:52.019Z,85.27
2023-08-21T07:40:31.873Z,85.31
2023-08-21T07:43:12.371Z,85.17
2023-08-21T07:45:52.636Z,85.23
2023-08-21T07:48:33.934Z,85.51
2023-08-21T07:51:14.329Z,85.49
2023-08-21T07:53:54.606Z,85.13
2023-08-21T07:56:36.645Z,85.02
2023-08-21T07:59:16.745Z,85.01
2023-08-21T08:01:57.350Z,86.12
2023-08-21T08:04:37.618Z,86.58
2023-08-21T08:07:18.189Z,86.70
2023-08-21T08:09:58.304Z,90.02
2023-08-21T08:12:38.672Z,88.74
2023-08-21T08:15:19.381Z,88.84
2023-08-21T08:17:59.479Z,88.24
2023-08-21T08:20:40.242Z,89.07
2023-08-21T08:23:21.992Z,88.33
2023-08-21T08:26:03.224Z,86.53
2023-08-21T08:28:43.811Z,87.64
2023-08-21T08:31:26.208Z,88.09
2023-08-21T08:34:06.640Z,87.50
2023-08-21T08:36:47.254Z,86.70
2023-08-21T08:39:27.475Z,85.40
2023-08-21T08:42:09.003Z,83.94
2023-08-21T08:44:50.390Z,83.08
2023-08-21T08:47:34.675Z,82.20
2023-08-21T08:50:15.831Z,81.87
2023-08-21T08:53:06.422Z,82.96
2023-08-21T08:55:55.305Z,79.48
2023-08-21T08:58:35.712Z,77.45
2023-08-21T09:01:16.064Z,77.56
2023-08-21T09:03:56.357Z,75.67
2023-08-21T09:06:37.048Z,76.05
2023-08-21T09:09:17.259Z,74.78
2023-08-21T09:11:57.848Z,75.97
2023-08-21T09:14:37.901Z,76.16
2023-08-21T09:17:18.183Z,73.38
2023-08-21T09:20:05.565Z,74.65
2023-08-21T09:22:55.276Z,76.89
2023-08-21T09:25:38.177Z,73.68
2023-08-21T09:28:25.082Z,74.95
2023-08-21T09:31:05.123Z,73.88
2023-08-21T09:33:56.128Z,74.24
2023-08-21T09:36:36.956Z,73.85
2023-08-21T09:39:19.456Z,74.08
2023-08-21T09:42:00.189Z,71.95
2023-08-21T09:44:42.586Z,72.26
2023-08-21T09:47:25.043Z,68.96
2023-08-21T09:50:05.680Z,69.90
2023-08-21T09:52:46.410Z,69.06
2023-08-21T09:55:27.995Z,68.96
2023-08-21T09:58:08.668Z,68.95
2023-08-21T10:00:50.545Z,62.76
2023-08-21T10:03:31.264Z,64.53
2023-08-21T10:06:12.411Z,62.07
2023-08-21T10:08:55.417Z,61.12
2023-08-21T10:11:35.668Z,60.63
2023-08-21T10:14:16.384Z,57.79
2023-08-21T10:16:57.265Z,59.72
2023-08-21T10:19:37.301Z,58.18
2023-08-21T10:22:38.979Z,57.43
2023-08-21T10:25:23.398Z,58.02
2023-08-21T10:28:06.187Z,58.30
2023-08-21T10:30:46.467Z,59.53
2023-08-21T10:33:48.394Z,59.22
2023-08-21T10:36:43.810Z,56.94
2023-08-21T10:39:23.871Z,59.58
2023-08-21T10:42:10.776Z,55.57
2023-08-21T10:44:53.701Z,57.39
2023-08-21T10:47:35.870Z,53.39
2023-08-21T10:50:16.082Z,52.68
2023-08-21T10:52:56.444Z,52.16
2023-08-21T10:55:38.282Z,51.30
2023-08-21T10:58:18.602Z,50.69
2023-08-21T11:01:01.825Z,50.13
2023-08-21T11:03:46.177Z,48.37
2023-08-21T11:06:26.576Z,52.48
2023-08-21T11:09:13.247Z,52.16
2023-08-21T11:12:36.101Z,51.40
2023-08-21T11:15:19.837Z,51.11
2023-08-21T11:18:04.288Z,51.82
2023-08-21T11:20:44.738Z,48.65
2023-08-21T11:23:33.650Z,51.54
2023-08-21T11:26:21.300Z,49.29
2023-08-21T11:29:03.744Z,50.90
2023-08-21T11:31:48.433Z,51.23
2023-08-21T11:34:28.596Z,46.15
2023-08-21T11:37:09.340Z,46.67
2023-08-21T11:39:50.769Z,45.50
2023-08-21T11:42:37.834Z,44.34
2023-08-21T11:45:23.046Z,44.52
2023-08-21T11:48:04.341Z,44.07
2023-08-21T11:50:45.745Z,42.82
2023-08-21T11:53:37.986Z,44.39
2023-08-21T11:56:18.610Z,44.52
2023-08-21T11:59:02.384Z,43.79
2023-08-21T12:01:43.235Z,42.49
2023-08-21T12:04:23.289Z,43.21
2023-08-21T12:07:03.466Z,42.67
2023-08-21T12:09:49.033Z,41.53
2023-08-21T12:12:29.121Z,40.61
2023-08-21T12:15:09.944Z,40.73
2023-08-21T12:17:50.428Z,39.26
2023-08-21T12:20:30.660Z,39.09
2023-08-21T12:23:10.637Z,38.97
2023-08-21T12:25:50.821Z,37.25
2023-08-21T12:28:31.692Z,36.53
2023-08-21T12:31:13.618Z,36.86
2023-08-21T12:33:53.928Z,34.84
2023-08-21T12:36:37.938Z,32.90
2023-08-21T12:39:18.877Z,32.00
2023-08-21T12:41:58.993Z,31.21
2023-08-21T12:44:39.871Z,30.29
2023-08-21T12:47:20.129Z,29.39
2023-08-21T12:50:00.174Z,29.31
2023-08-21T12:52:42.321Z,27.60
2023-08-21T12:55:22.438Z,30.12
2023-08-21T12:58:02.856Z,30.35
2023-08-21T13:00:43.358Z,29.78
2023-08-21T13:03:25.910Z,29.34
2023-08-21T13:06:07.020Z,29.49
2023-08-21T13:08:47.785Z,30.53
2023-08-21T13:11:27.933Z,31.37
2023-08-21T13:14:08.266Z,32.67
2023-08-21T13:16:48.586Z,33.37
2023-08-21T13:19:38.409Z,34.84
2023-08-21T13:22:18.970Z,34.94
2023-08-21T13:24:59.706Z,35.28
2023-08-21T13:27:39.985Z,36.71
2023-08-21T13:30:21.453Z,36.21
2023-08-21T13:33:01.950Z,37.37
2023-08-21T13:35:42.020Z,33.33
2023-08-21T13:38:22.274Z,32.39
2023-08-21T13:41:03.175Z,30.50
2023-08-21T13:43:46.218Z,26.66
2023-08-21T13:46:26.488Z,25.82
2023-08-21T13:49:07.401Z,23.66
2023-08-21T13:51:47.427Z,23.11
2023-08-21T13:54:27.595Z,24.18
2023-08-21T13:57:07.943Z,26.22
2023-08-21T13:59:48.141Z,24.40
2023-08-21T14:02:31.611Z,24.28
2023-08-21T14:05:12.773Z,24.32
2023-08-21T14:07:53.024Z,25.20
2023-08-21T14:10:33.035Z,25.33
2023-08-21T14:13:13.174Z,24.99
2023-08-21T14:15:53.744Z,25.61
2023-08-21T14:18:34.048Z,23.98
2023-08-21T14:21:14.623Z,23.32
2023-08-21T14:23:54.910Z,22.98
2023-08-21T14:26:35.186Z,24.87
2023-08-21T14:29:15.409Z,26.76
2023-08-21T14:31:55.586Z,28.22
2023-08-21T14:34:37.049Z,30.81
2023-08-21T14:37:17.454Z,33.20
2023-08-21T14:39:57.755Z,32.69
2023-08-21T14:43:04.427Z,34.83
2023-08-21T14:45:44.840Z,32.91
2023-08-21T14:48:25.197Z,32.72
2023-08-21T14:51:06.459Z,31.45
2023-08-21T14:53:48.031Z,30.09
2023-08-21T14:56:28.724Z,27.53
2023-08-21T14:59:12.046Z,26.82
2023-08-21T15:01:52.300Z,26.76
2023-08-21T15:04:33.182Z,28.80
2023-08-21T15:07:13.416Z,29.26
2023-08-21T15:09:54.390Z,31.35
2023-08-21T15:12:35.176Z,30.21
2023-08-21T15:15:18.003Z,27.97
2023-08-21T15:18:00.086Z,25.59
2023-08-21T15:20:40.111Z,24.99
2023-08-21T15:23:20.422Z,25.73
2023-08-21T15:26:00.454Z,24.80
2023-08-21T15:28:40.732Z,24.47
2023-08-21T15:31:21.429Z,25.27
2023-08-21T15:34:09.316Z,23.95
2023-08-21T15:36:59.257Z,25.24
2023-08-21T15:39:39.765Z,23.79
2023-08-21T15:42:20.445Z,24.70
2023-08-21T15:45:00.581Z,24.96
2023-08-21T15:47:48.786Z,24.82
2023-08-21T15:50:30.002Z,24.55
2023-08-21T15:53:10.400Z,23.58
2023-08-21T15:55:50.735Z,23.52
2023-08-21T15:58:30.885Z,23.37
2023-08-21T16:01:16.302Z,24.40
2023-08-21T16:04:02.425Z,23.78
2023-08-21T16:06:42.854Z,23.85
2023-08-21T16:09:23.190Z,24.30
2023-08-21T16:12:04.309Z,23.43
2023-08-21T16:14:44.412Z,24.23
2023-08-21T16:17:24.697Z,24.89
2023-08-21T16:20:06.014Z,24.75
2023-08-21T16:22:46.463Z,24.02
2023-08-21T16:25:26.501Z,24.70
2023-08-21T16:28:06.916Z,25.69
2023-08-21T16:30:46.998Z,27.29
2023-08-21T16:33:27.017Z,28.90
2023-08-21T16:36:07.052Z,27.22
2023-08-21T16:38:47.033Z,28.17
2023-08-21T16:41:27.233Z,32.40
2023-08-21T16:44:07.440Z,32.14
2023-08-21T16:46:48.875Z,32.69
2023-08-21T16:49:29.196Z,30.73
2023-08-21T16:52:09.156Z,30.61
2023-08-21T16:54:49.142Z,31.62
2023-08-21T16:57:29.138Z,32.78
2023-08-21T17:00:12.362Z,33.75
2023-08-21T17:02:53.025Z,35.30
2023-08-21T17:05:35.369Z,35.21
2023-08-21T17:08:15.902Z,35.53
2023-08-21T17:10:56.073Z,35.12
2023-08-21T17:13:36.818Z,36.22
2023-08-21T17:16:17.518Z,36.48
2023-08-21T17:18:57.718Z,36.50
2023-08-21T17:21:37.622Z,37.63
2023-08-21T17:24:17.888Z,38.84
2023-08-21T17:27:01.677Z,40.03
2023-08-21T17:29:42.422Z,41.25
2023-08-21T17:32:22.669Z,40.18
2023-08-21T17:35:03.963Z,39.26
2023-08-21T17:37:44.052Z,39.03
2023-08-21T17:40:24.126Z,39.26
2023-08-21T17:43:04.375Z,38.89
2023-08-21T17:45:46.823Z,40.15
2023-08-21T17:48:27.290Z,41.21
2023-08-21T17:51:07.730Z,42.23
2023-08-21T17:53:47.902Z,42.58
2023-08-21T17:56:28.184Z,43.15
2023-08-21T17:59:08.402Z,44.16
2023-08-21T18:01:48.754Z,44.54
2023-08-21T18:04:31.016Z,44.31
2023-08-21T18:07:11.584Z,45.32
2023-08-21T18:09:52.496Z,45.58
2023-08-21T18:12:32.616Z,46.41
2023-08-21T18:15:12.651Z,47.38
2023-08-21T18:17:52.904Z,48.23
2023-08-21T18:20:53.284Z,49.08
2023-08-21T18:23:33.415Z,49.83
2023-08-21T18:26:14.588Z,50.33
2023-08-21T18:28:54.763Z,51.43
2023-08-21T18:31:37.269Z,51.47
2023-08-21T18:34:17.656Z,51.86
2023-08-21T18:37:00.994Z,52.21
2023-08-21T18:39:41.101Z,54.10
2023-08-21T18:42:23.372Z,55.47
2023-08-21T18:45:03.839Z,55.11
2023-08-21T18:47:44.228Z,55.68
2023-08-21T18:50:34.746Z,55.66
2023-08-21T18:53:16.584Z,57.52
2023-08-21T18:55:57.114Z,58.27
2023-08-21T18:58:40.812Z,57.68
2023-08-21T19:01:21.060Z,57.86
2023-08-21T19:04:01.247Z,58.73
2023-08-21T19:06:51.710Z,58.28
2023-08-21T19:09:36.301Z,58.38
2023-08-21T19:12:16.311Z,58.78
2023-08-21T19:14:58.759Z,61.13
2023-08-21T19:17:39.256Z,60.46
2023-08-21T19:20:19.859Z,60.05
2023-08-21T19:23:00.107Z,60.17
2023-08-21T19:25:40.314Z,61.90
2023-08-21T19:28:20.801Z,61.23
2023-08-21T19:31:01.046Z,61.39
2023-08-21T19:33:41.486Z,61.35
2023-08-21T19:36:21.471Z,62.74
2023-08-21T19:39:01.921Z,62.12
2023-08-21T19:41:42.456Z,61.98
2023-08-21T19:44:22.898Z,62.63
2023-08-21T19:47:03.503Z,62.85
2023-08-21T19:49:43.483Z,63.80
2023-08-21T19:52:23.895Z,63.48
2023-08-21T19:55:04.287Z,63.37
2023-08-21T19:57:44.519Z,63.60
2023-08-21T20:00:24.594Z,63.88
2023-08-21T20:03:05.135Z,64.02
2023-08-21T20:05:46.655Z,64.27
2023-08-21T20:08:26.799Z,66.00
2023-08-21T20:11:07.060Z,65.43
2023-08-21T20:13:47.456Z,65.36
2023-08-21T20:16:28.971Z,65.45
2023-08-21T20:19:09.799Z,67.97
2023-08-21T20:21:50.047Z,69.31
2023-08-21T20:24:31.633Z,68.19
2023-08-21T20:27:11.818Z,69.25
2023-08-21T20:29:52.243Z,69.29
2023-08-21T20:32:32.396Z,69.05
2023-08-21T20:35:12.613Z,68.81
2023-08-21T20:37:52.577Z,68.47
2023-08-21T20:40:32.618Z,68.48
2023-08-21T20:43:15.715Z,68.41
2023-08-21T20:45:55.891Z,69.05
2023-08-21T20:48:36.274Z,71.48
2023-08-21T20:51:17.160Z,70.67
2023-08-21T20:53:57.624Z,70.18
2023-08-21T20:56:37.907Z,69.76
2023-08-21T20:59:18.086Z,69.70
2023-08-21T21:01:58.253Z,72.78
2023-08-21T21:04:38.700Z,72.14
2023-08-21T21:07:18.664Z,71.45
2023-08-21T21:09:58.934Z,71.30
2023-08-21T21:12:39.336Z,71.44
2023-08-21T21:15:19.361Z,74.34
2023-08-21T21:17:59.813Z,72.55
2023-08-21T21:20:39.821Z,71.85
2023-08-21T21:23:20.196Z,73.93
2023-08-21T21:26:01.772Z,73.31
2023-08-21T21:28:41.966Z,73.28
2023-08-21T21:31:21.940Z,72.28
2023-08-21T21:34:02.501Z,74.22
2023-08-21T21:36:44.926Z,73.31
2023-08-21T21:39:24.975Z,74.92
2023-08-21T21:42:05.253Z,73.84
2023-08-21T21:44:45.576Z,74.56
2023-08-21T21:47:25.809Z,75.97
2023-08-21T21:50:06.839Z,75.75
2023-08-21T21:52:47.077Z,74.88
2023-08-21T21:55:27.777Z,76.22
2023-08-21T21:58:07.998Z,77.96
2023-08-21T22:00:48.343Z,76.62
2023-08-21T22:03:30.303Z,77.80
2023-08-21T22:06:10.511Z,76.73
2023-08-21T22:08:51.961Z,76.29
2023-08-21T22:11:32.205Z,75.60
2023-08-21T22:14:12.641Z,75.28
2023-08-21T22:16:52.645Z,75.06
2023-08-21T22:19:32.765Z,75.05
2023-08-21T22:22:13.176Z,75.21
2023-08-21T22:24:53.485Z,75.99
2023-08-21T22:27:33.417Z,77.63
2023-08-21T22:30:13.816Z,76.38
2023-08-21T22:32:54.583Z,76.36
2023-08-21T22:35:34.844Z,75.78
2023-08-21T22:38:14.795Z,75.64
2023-08-21T22:40:54.891Z,75.97
2023-08-21T22:43:34.806Z,76.38
2023-08-21T22:46:15.039Z,76.68
2023-08-21T22:48:55.245Z,76.64
2023-08-21T22:51:38.670Z,77.66
2023-08-21T22:54:19.685Z,79.95
2023-08-21T22:57:00.693Z,80.49
2023-08-21T22:59:40.953Z,80.51
2023-08-21T23:02:21.406Z,79.18
2023-08-21T23:05:01.654Z,78.57
2023-08-21T23:07:41.910Z,78.31
2023-08-21T23:10:22.299Z,79.63
2023-08-21T23:13:02.840Z,78.91
2023-08-21T23:15:50.307Z,77.95
2023-08-21T23:18:30.626Z,78.09
2023-08-21T23:21:10.976Z,78.97
2023-08-21T23:23:51.298Z,80.13
2023-08-21T23:26:31.456Z,79.29
2023-08-21T23:29:12.244Z,79.01
2023-08-21T23:31:52.662Z,79.16
2023-08-21T23:34:32.754Z,78.96
2023-08-21T23:37:13.127Z,80.75
2023-08-21T23:39:53.322Z,80.21
2023-08-21T23:42:33.863Z,82.64
2023-08-21T23:45:14.196Z,81.17
2023-08-21T23:47:54.305Z,81.75
2023-08-21T23:50:34.519Z,82.00
2023-08-21T23:53:14.687Z,81.07
2023-08-21T23:55:55.013Z,84.03
2023-08-21T23:58:35.950Z,83.53
